sensor_id;sensor_type;location;lat;lon;timestamp;temperature;humidity
52531;DHT22;38441;52.894;6.040;2022-08-19T00:01:18;17.10;99.90
52531;DHT22;38441;52.894;6.040;2022-08-19T00:03:44;18.40;99.90
52531;DHT22;38441;52.894;6.040;2022-08-19T00:06:10;17.00;99.90
52531;DHT22;38441;52.894;6.040;2022-08-19T00:08:36;18.50;99.90
52531;DHT22;38441;52.894;6.040;2022-08-19T00:11:02;16.90;99.90
52531;DHT22;38441;52.894;6.040;2022-08-19T00:13:27;17.10;99.90
52531;DHT22;38441;52.894;6.040;2022-08-19T00:15:55;16.80;99.90
52531;DHT22;38441;52.894;6.040;2022-08-19T00:18:20;17.00;99.90
52531;DHT22;38441;52.894;6.040;2022-08-19T00:20:46;17.00;99.90
52531;DHT22;38441;52.894;6.040;2022-08-19T00:23:12;16.90;99.90
52531;DHT22;38441;52.894;6.040;2022-08-19T00:25:37;17.00;99.90
52531;DHT22;38441;52.894;6.040;2022-08-19T00:28:03;17.50;99.90
52531;DHT22;38441;52.894;6.040;2022-08-19T00:30:29;17.00;99.90
52531;DHT22;38441;52.894;6.040;2022-08-19T00:32:56;17.20;99.90
52531;DHT22;38441;52.894;6.040;2022-08-19T00:35:22;17.90;99.90
52531;DHT22;38441;52.894;6.040;2022-08-19T00:37:49;16.80;99.90
52531;DHT22;38441;52.894;6.040;2022-08-19T00:40:16;16.70;99.90
52531;DHT22;38441;52.894;6.040;2022-08-19T00:42:41;16.70;99.90
52531;DHT22;38441;52.894;6.040;2022-08-19T00:45:19;16.70;99.90
52531;DHT22;38441;52.894;6.040;2022-08-19T00:47:45;17.60;99.90
52531;DHT22;38441;52.894;6.040;2022-08-19T00:50:13;18.10;99.90
52531;DHT22;38441;52.894;6.040;2022-08-19T00:52:43;17.60;99.90
52531;DHT22;38441;52.894;6.040;2022-08-19T00:55:15;17.90;99.90
52531;DHT22;38441;52.894;6.040;2022-08-19T00:57:44;16.60;99.90
52531;DHT22;38441;52.894;6.040;2022-08-19T01:00:14;16.50;99.90
52531;DHT22;38441;52.894;6.040;2022-08-19T01:02:42;16.50;99.90
52531;DHT22;38441;52.894;6.040;2022-08-19T01:05:16;15.30;99.90
52531;DHT22;38441;52.894;6.040;2022-08-19T01:07:44;16.70;99.90
52531;DHT22;38441;52.894;6.040;2022-08-19T01:10:14;16.20;99.90
52531;DHT22;38441;52.894;6.040;2022-08-19T01:12:41;16.60;99.90
52531;DHT22;38441;52.894;6.040;2022-08-19T01:15:09;16.70;99.90
52531;DHT22;38441;52.894;6.040;2022-08-19T01:17:38;16.40;99.90
52531;DHT22;38441;52.894;6.040;2022-08-19T01:20:07;16.50;99.90
52531;DHT22;38441;52.894;6.040;2022-08-19T01:22:43;16.60;99.90
52531;DHT22;38441;52.894;6.040;2022-08-19T01:25:09;17.00;99.90
52531;DHT22;38441;52.894;6.040;2022-08-19T01:27:40;16.60;99.90
52531;DHT22;38441;52.894;6.040;2022-08-19T01:30:07;17.80;99.90
52531;DHT22;38441;52.894;6.040;2022-08-19T01:32:33;16.60;99.90
52531;DHT22;38441;52.894;6.040;2022-08-19T01:34:58;16.50;99.90
52531;DHT22;38441;52.894;6.040;2022-08-19T01:37:26;16.30;99.90
52531;DHT22;38441;52.894;6.040;2022-08-19T01:39:52;16.20;99.90
52531;DHT22;38441;52.894;6.040;2022-08-19T01:42:18;16.30;99.90
52531;DHT22;38441;52.894;6.040;2022-08-19T01:44:45;16.00;99.90
52531;DHT22;38441;52.894;6.040;2022-08-19T01:47:11;16.20;99.90
52531;DHT22;38441;52.894;6.040;2022-08-19T01:49:37;16.30;99.90
52531;DHT22;38441;52.894;6.040;2022-08-19T01:52:04;16.20;99.90
52531;DHT22;38441;52.894;6.040;2022-08-19T01:54:29;16.40;99.90
52531;DHT22;38441;52.894;6.040;2022-08-19T01:56:59;16.20;99.90
52531;DHT22;38441;52.894;6.040;2022-08-19T01:59:25;17.00;99.90
52531;DHT22;38441;52.894;6.040;2022-08-19T02:01:51;18.30;99.90
52531;DHT22;38441;52.894;6.040;2022-08-19T02:04:16;16.20;99.90
52531;DHT22;38441;52.894;6.040;2022-08-19T02:06:42;15.90;99.90
52531;DHT22;38441;52.894;6.040;2022-08-19T02:09:08;15.80;99.90
52531;DHT22;38441;52.894;6.040;2022-08-19T02:11:35;16.00;99.90
52531;DHT22;38441;52.894;6.040;2022-08-19T02:14:03;16.00;99.90
52531;DHT22;38441;52.894;6.040;2022-08-19T02:16:29;15.90;99.90
52531;DHT22;38441;52.894;6.040;2022-08-19T02:18:56;16.00;99.90
52531;DHT22;38441;52.894;6.040;2022-08-19T02:21:23;16.10;99.90
52531;DHT22;38441;52.894;6.040;2022-08-19T02:23:50;16.00;99.90
52531;DHT22;38441;52.894;6.040;2022-08-19T02:26:16;16.20;99.90
52531;DHT22;38441;52.894;6.040;2022-08-19T02:28:42;15.80;99.90
52531;DHT22;38441;52.894;6.040;2022-08-19T02:31:10;16.00;99.90
52531;DHT22;38441;52.894;6.040;2022-08-19T02:33:36;16.10;99.90
52531;DHT22;38441;52.894;6.040;2022-08-19T02:36:04;15.90;99.90
52531;DHT22;38441;52.894;6.040;2022-08-19T02:38:30;15.90;99.90
52531;DHT22;38441;52.894;6.040;2022-08-19T02:41:02;15.90;99.90
52531;DHT22;38441;52.894;6.040;2022-08-19T02:43:30;15.90;99.90
52531;DHT22;38441;52.894;6.040;2022-08-19T02:45:56;15.70;99.90
52531;DHT22;38441;52.894;6.040;2022-08-19T02:48:24;16.00;99.90
52531;DHT22;38441;52.894;6.040;2022-08-19T02:50:52;15.70;99.90
52531;DHT22;38441;52.894;6.040;2022-08-19T02:53:26;15.70;99.90
52531;DHT22;38441;52.894;6.040;2022-08-19T02:55:52;16.00;99.90
52531;DHT22;38441;52.894;6.040;2022-08-19T02:58:18;15.80;99.90
52531;DHT22;38441;52.894;6.040;2022-08-19T03:00:46;15.90;99.90
52531;DHT22;38441;52.894;6.040;2022-08-19T03:03:12;15.90;99.90
52531;DHT22;38441;52.894;6.040;2022-08-19T03:05:39;15.90;99.90
52531;DHT22;38441;52.894;6.040;2022-08-19T03:08:05;15.90;99.90
52531;DHT22;38441;52.894;6.040;2022-08-19T03:10:32;15.70;99.90
52531;DHT22;38441;52.894;6.040;2022-08-19T03:12:58;15.80;99.90
52531;DHT22;38441;52.894;6.040;2022-08-19T03:15:23;15.90;99.90
52531;DHT22;38441;52.894;6.040;2022-08-19T03:17:49;15.70;99.90
52531;DHT22;38441;52.894;6.040;2022-08-19T03:20:14;15.80;99.90
52531;DHT22;38441;52.894;6.040;2022-08-19T03:22:40;15.90;99.90
52531;DHT22;38441;52.894;6.040;2022-08-19T03:25:06;15.80;99.90
52531;DHT22;38441;52.894;6.040;2022-08-19T03:27:32;15.90;99.90
52531;DHT22;38441;52.894;6.040;2022-08-19T03:29:57;15.70;99.90
52531;DHT22;38441;52.894;6.040;2022-08-19T03:32:23;15.70;99.90
52531;DHT22;38441;52.894;6.040;2022-08-19T03:34:49;15.70;99.90
52531;DHT22;38441;52.894;6.040;2022-08-19T03:37:16;15.60;99.90
52531;DHT22;38441;52.894;6.040;2022-08-19T03:39:42;15.60;99.90
52531;DHT22;38441;52.894;6.040;2022-08-19T03:42:08;15.80;99.90
52531;DHT22;38441;52.894;6.040;2022-08-19T03:44:34;15.80;99.90
52531;DHT22;38441;52.894;6.040;2022-08-19T03:47:03;15.60;99.90
52531;DHT22;38441;52.894;6.040;2022-08-19T03:49:30;15.70;99.90
52531;DHT22;38441;52.894;6.040;2022-08-19T03:51:58;15.70;99.90
52531;DHT22;38441;52.894;6.040;2022-08-19T03:54:26;15.60;99.90
52531;DHT22;38441;52.894;6.040;2022-08-19T03:56:54;15.60;99.90
52531;DHT22;38441;52.894;6.040;2022-08-19T03:59:29;15.50;99.90
52531;DHT22;38441;52.894;6.040;2022-08-19T04:01:58;15.50;99.90
52531;DHT22;38441;52.894;6.040;2022-08-19T04:04:24;15.50;99.90
52531;DHT22;38441;52.894;6.040;2022-08-19T04:06:50;15.50;99.90
52531;DHT22;38441;52.894;6.040;2022-08-19T04:09:16;15.50;99.90
52531;DHT22;38441;52.894;6.040;2022-08-19T04:11:49;15.40;99.90
52531;DHT22;38441;52.894;6.040;2022-08-19T04:14:18;15.30;99.90
52531;DHT22;38441;52.894;6.040;2022-08-19T04:16:45;15.50;99.90
52531;DHT22;38441;52.894;6.040;2022-08-19T04:19:13;15.40;99.90
52531;DHT22;38441;52.894;6.040;2022-08-19T04:21:39;15.60;99.90
52531;DHT22;38441;52.894;6.040;2022-08-19T04:24:05;15.40;99.90
52531;DHT22;38441;52.894;6.040;2022-08-19T04:26:34;15.40;99.90
52531;DHT22;38441;52.894;6.040;2022-08-19T04:29:04;15.30;99.90
52531;DHT22;38441;52.894;6.040;2022-08-19T04:31:31;15.40;99.90
52531;DHT22;38441;52.894;6.040;2022-08-19T04:34:02;15.40;99.90
52531;DHT22;38441;52.894;6.040;2022-08-19T04:36:30;15.50;99.90
52531;DHT22;38441;52.894;6.040;2022-08-19T04:39:01;15.50;99.90
52531;DHT22;38441;52.894;6.040;2022-08-19T04:41:27;15.30;99.90
52531;DHT22;38441;52.894;6.040;2022-08-19T04:44:22;15.50;99.90
52531;DHT22;38441;52.894;6.040;2022-08-19T04:46:49;15.50;99.90
52531;DHT22;38441;52.894;6.040;2022-08-19T04:49:16;15.40;99.90
52531;DHT22;38441;52.894;6.040;2022-08-19T04:51:44;15.40;99.90
52531;DHT22;38441;52.894;6.040;2022-08-19T04:54:12;15.40;99.90
52531;DHT22;38441;52.894;6.040;2022-08-19T04:56:39;15.40;99.90
52531;DHT22;38441;52.894;6.040;2022-08-19T04:59:05;15.50;99.90
52531;DHT22;38441;52.894;6.040;2022-08-19T05:01:32;15.60;99.90
52531;DHT22;38441;52.894;6.040;2022-08-19T05:04:00;15.40;99.90
52531;DHT22;38441;52.894;6.040;2022-08-19T05:06:26;15.50;99.90
52531;DHT22;38441;52.894;6.040;2022-08-19T05:08:52;15.40;99.90
52531;DHT22;38441;52.894;6.040;2022-08-19T05:11:23;15.30;99.90
52531;DHT22;38441;52.894;6.040;2022-08-19T05:13:49;15.20;99.90
52531;DHT22;38441;52.894;6.040;2022-08-19T05:16:17;15.30;99.90
52531;DHT22;38441;52.894;6.040;2022-08-19T05:18:44;15.30;99.90
52531;DHT22;38441;52.894;6.040;2022-08-19T05:21:28;15.50;99.90
52531;DHT22;38441;52.894;6.040;2022-08-19T05:24:13;15.40;99.90
52531;DHT22;38441;52.894;6.040;2022-08-19T05:26:43;15.50;99.90
52531;DHT22;38441;52.894;6.040;2022-08-19T05:29:12;15.40;99.90
52531;DHT22;38441;52.894;6.040;2022-08-19T05:31:38;15.30;99.90
52531;DHT22;38441;52.894;6.040;2022-08-19T05:34:05;15.60;99.90
52531;DHT22;38441;52.894;6.040;2022-08-19T05:36:36;15.70;99.90
52531;DHT22;38441;52.894;6.040;2022-08-19T05:39:04;15.50;99.90
52531;DHT22;38441;52.894;6.040;2022-08-19T05:41:29;15.60;99.90
52531;DHT22;38441;52.894;6.040;2022-08-19T05:44:02;15.90;99.90
52531;DHT22;38441;52.894;6.040;2022-08-19T05:46:28;15.80;99.90
52531;DHT22;38441;52.894;6.040;2022-08-19T05:48:55;15.60;99.90
52531;DHT22;38441;52.894;6.040;2022-08-19T05:51:22;15.70;99.90
52531;DHT22;38441;52.894;6.040;2022-08-19T05:53:49;15.90;99.90
52531;DHT22;38441;52.894;6.040;2022-08-19T05:56:16;16.00;99.90
52531;DHT22;38441;52.894;6.040;2022-08-19T05:58:44;15.90;99.90
52531;DHT22;38441;52.894;6.040;2022-08-19T06:01:12;15.90;99.90
52531;DHT22;38441;52.894;6.040;2022-08-19T06:03:39;15.90;99.90
52531;DHT22;38441;52.894;6.040;2022-08-19T06:06:06;16.20;99.90
52531;DHT22;38441;52.894;6.040;2022-08-19T06:08:33;16.20;99.90
52531;DHT22;38441;52.894;6.040;2022-08-19T06:11:22;16.30;99.90
52531;DHT22;38441;52.894;6.040;2022-08-19T06:13:50;16.20;99.90
52531;DHT22;38441;52.894;6.040;2022-08-19T06:16:21;16.20;99.90
52531;DHT22;38441;52.894;6.040;2022-08-19T06:18:51;16.50;99.90
52531;DHT22;38441;52.894;6.040;2022-08-19T06:21:18;16.40;99.90
52531;DHT22;38441;52.894;6.040;2022-08-19T06:23:45;16.50;99.90
52531;DHT22;38441;52.894;6.040;2022-08-19T06:26:14;16.90;99.90
52531;DHT22;38441;52.894;6.040;2022-08-19T06:28:40;16.80;99.90
52531;DHT22;38441;52.894;6.040;2022-08-19T06:31:09;16.60;99.90
52531;DHT22;38441;52.894;6.040;2022-08-19T06:33:35;17.10;99.90
52531;DHT22;38441;52.894;6.040;2022-08-19T06:36:01;17.20;99.90
52531;DHT22;38441;52.894;6.040;2022-08-19T06:39:24;17.10;99.90
52531;DHT22;38441;52.894;6.040;2022-08-19T06:41:26;17.20;99.90
52531;DHT22;38441;52.894;6.040;2022-08-19T06:43:52;17.20;99.90
52531;DHT22;38441;52.894;6.040;2022-08-19T06:46:18;17.40;99.90
52531;DHT22;38441;52.894;6.040;2022-08-19T06:48:45;17.60;99.90
52531;DHT22;38441;52.894;6.040;2022-08-19T06:51:13;17.70;99.90
52531;DHT22;38441;52.894;6.040;2022-08-19T06:53:41;17.50;99.90
52531;DHT22;38441;52.894;6.040;2022-08-19T06:56:13;17.90;99.90
52531;DHT22;38441;52.894;6.040;2022-08-19T06:58:40;17.90;99.90
52531;DHT22;38441;52.894;6.040;2022-08-19T07:01:06;18.00;99.90
52531;DHT22;38441;52.894;6.040;2022-08-19T07:03:34;17.90;99.90
52531;DHT22;38441;52.894;6.040;2022-08-19T07:06:10;17.90;99.90
52531;DHT22;38441;52.894;6.040;2022-08-19T07:08:37;18.30;99.90
52531;DHT22;38441;52.894;6.040;2022-08-19T07:11:07;18.40;99.90
52531;DHT22;38441;52.894;6.040;2022-08-19T07:13:34;18.50;99.90
52531;DHT22;38441;52.894;6.040;2022-08-19T07:16:11;18.50;99.90
52531;DHT22;38441;52.894;6.040;2022-08-19T07:18:38;18.70;99.90
52531;DHT22;38441;52.894;6.040;2022-08-19T07:21:15;18.80;99.90
52531;DHT22;38441;52.894;6.040;2022-08-19T07:23:42;19.50;99.90
52531;DHT22;38441;52.894;6.040;2022-08-19T07:26:38;19.00;99.90
52531;DHT22;38441;52.894;6.040;2022-08-19T07:29:05;19.40;99.90
52531;DHT22;38441;52.894;6.040;2022-08-19T07:31:31;19.80;99.90
52531;DHT22;38441;52.894;6.040;2022-08-19T07:34:03;19.40;99.90
52531;DHT22;38441;52.894;6.040;2022-08-19T07:36:33;19.40;99.90
52531;DHT22;38441;52.894;6.040;2022-08-19T07:39:02;19.40;99.90
52531;DHT22;38441;52.894;6.040;2022-08-19T07:41:29;20.70;99.90
52531;DHT22;38441;52.894;6.040;2022-08-19T07:43:56;19.70;99.90
52531;DHT22;38441;52.894;6.040;2022-08-19T07:46:22;19.80;99.90
52531;DHT22;38441;52.894;6.040;2022-08-19T07:48:49;20.00;99.90
52531;DHT22;38441;52.894;6.040;2022-08-19T07:51:18;19.90;99.90
52531;DHT22;38441;52.894;6.040;2022-08-19T07:53:45;20.00;99.90
52531;DHT22;38441;52.894;6.040;2022-08-19T07:56:12;20.10;99.90
52531;DHT22;38441;52.894;6.040;2022-08-19T07:58:41;20.30;99.90
52531;DHT22;38441;52.894;6.040;2022-08-19T08:01:12;20.30;99.90
52531;DHT22;38441;52.894;6.040;2022-08-19T08:03:39;20.40;99.90
52531;DHT22;38441;52.894;6.040;2022-08-19T08:06:24;20.60;99.90
52531;DHT22;38441;52.894;6.040;2022-08-19T08:09:09;20.90;99.90
52531;DHT22;38441;52.894;6.040;2022-08-19T08:50:54;22.40;99.90
52531;DHT22;38441;52.894;6.040;2022-08-19T08:53:22;22.40;99.90
52531;DHT22;38441;52.894;6.040;2022-08-19T08:55:48;22.40;99.90
52531;DHT22;38441;52.894;6.040;2022-08-19T09:03:27;23.00;99.90
52531;DHT22;38441;52.894;6.040;2022-08-19T09:06:02;22.90;99.90
52531;DHT22;38441;52.894;6.040;2022-08-19T09:11:19;23.10;99.90
52531;DHT22;38441;52.894;6.040;2022-08-19T09:16:20;25.30;99.90
52531;DHT22;38441;52.894;6.040;2022-08-19T09:18:56;23.30;99.90
52531;DHT22;38441;52.894;6.040;2022-08-19T09:21:23;24.70;99.90
52531;DHT22;38441;52.894;6.040;2022-08-19T09:23:51;23.40;99.90
52531;DHT22;38441;52.894;6.040;2022-08-19T09:26:19;25.00;99.90
52531;DHT22;38441;52.894;6.040;2022-08-19T09:28:47;20.90;99.90
52531;DHT22;38441;52.894;6.040;2022-08-19T09:31:22;26.00;99.90
52531;DHT22;38441;52.894;6.040;2022-08-19T09:33:49;23.50;99.90
52531;DHT22;38441;52.894;6.040;2022-08-19T09:36:17;25.50;99.90
52531;DHT22;38441;52.894;6.040;2022-08-19T09:38:44;24.40;99.90
52531;DHT22;38441;52.894;6.040;2022-08-19T09:41:16;24.30;99.90
52531;DHT22;38441;52.894;6.040;2022-08-19T09:43:45;23.00;99.90
52531;DHT22;38441;52.894;6.040;2022-08-19T09:46:11;23.30;99.90
52531;DHT22;38441;52.894;6.040;2022-08-19T09:48:41;26.20;99.90
52531;DHT22;38441;52.894;6.040;2022-08-19T09:51:10;23.50;99.90
52531;DHT22;38441;52.894;6.040;2022-08-19T09:53:37;26.30;99.90
52531;DHT22;38441;52.894;6.040;2022-08-19T09:56:05;23.80;99.90
52531;DHT22;38441;52.894;6.040;2022-08-19T09:58:34;23.60;99.90
52531;DHT22;38441;52.894;6.040;2022-08-19T10:01:01;25.10;99.90
52531;DHT22;38441;52.894;6.040;2022-08-19T10:03:28;24.30;99.90
52531;DHT22;38441;52.894;6.040;2022-08-19T10:05:56;23.70;99.90
52531;DHT22;38441;52.894;6.040;2022-08-19T10:08:32;25.50;99.90
52531;DHT22;38441;52.894;6.040;2022-08-19T10:10:59;23.90;99.90
52531;DHT22;38441;52.894;6.040;2022-08-19T10:13:27;26.80;99.90
52531;DHT22;38441;52.894;6.040;2022-08-19T10:15:54;24.40;99.90
52531;DHT22;38441;52.894;6.040;2022-08-19T10:18:23;25.80;99.90
52531;DHT22;38441;52.894;6.040;2022-08-19T10:20:50;26.00;99.90
52531;DHT22;38441;52.894;6.040;2022-08-19T10:23:18;25.50;99.90
52531;DHT22;38441;52.894;6.040;2022-08-19T10:25:45;25.80;99.90
52531;DHT22;38441;52.894;6.040;2022-08-19T10:28:11;26.90;99.90
52531;DHT22;38441;52.894;6.040;2022-08-19T10:30:40;25.80;99.90
52531;DHT22;38441;52.894;6.040;2022-08-19T10:33:06;26.50;99.90
52531;DHT22;38441;52.894;6.040;2022-08-19T10:38:53;25.00;99.90
52531;DHT22;38441;52.894;6.040;2022-08-19T10:44:39;25.00;99.90
52531;DHT22;38441;52.894;6.040;2022-08-19T10:47:05;25.30;99.90
52531;DHT22;38441;52.894;6.040;2022-08-19T10:49:31;25.50;99.90
52531;DHT22;38441;52.894;6.040;2022-08-19T10:51:58;25.40;99.90
52531;DHT22;38441;52.894;6.040;2022-08-19T10:54:42;25.50;99.90
52531;DHT22;38441;52.894;6.040;2022-08-19T10:57:30;26.60;99.90
52531;DHT22;38441;52.894;6.040;2022-08-19T10:59:56;25.80;99.90
52531;DHT22;38441;52.894;6.040;2022-08-19T11:02:22;26.60;99.90
52531;DHT22;38441;52.894;6.040;2022-08-19T11:04:48;26.10;99.90
52531;DHT22;38441;52.894;6.040;2022-08-19T11:07:15;25.90;99.90
52531;DHT22;38441;52.894;6.040;2022-08-19T11:09:42;26.10;99.90
52531;DHT22;38441;52.894;6.040;2022-08-19T11:12:09;26.00;99.90
52531;DHT22;38441;52.894;6.040;2022-08-19T11:14:35;26.10;99.90
52531;DHT22;38441;52.894;6.040;2022-08-19T11:17:03;27.60;99.90
52531;DHT22;38441;52.894;6.040;2022-08-19T11:19:29;26.00;99.90
52531;DHT22;38441;52.894;6.040;2022-08-19T11:21:55;26.20;99.90
52531;DHT22;38441;52.894;6.040;2022-08-19T11:24:24;25.90;99.90
52531;DHT22;38441;52.894;6.040;2022-08-19T11:26:52;26.00;99.90
52531;DHT22;38441;52.894;6.040;2022-08-19T11:29:20;26.00;99.90
52531;DHT22;38441;52.894;6.040;2022-08-19T11:31:48;25.90;99.90
52531;DHT22;38441;52.894;6.040;2022-08-19T11:34:22;25.90;99.90
52531;DHT22;38441;52.894;6.040;2022-08-19T11:36:49;26.50;99.90
52531;DHT22;38441;52.894;6.040;2022-08-19T11:39:18;26.10;99.90
52531;DHT22;38441;52.894;6.040;2022-08-19T11:41:44;26.30;99.90
52531;DHT22;38441;52.894;6.040;2022-08-19T11:44:09;26.10;99.90
52531;DHT22;38441;52.894;6.040;2022-08-19T11:46:37;26.30;99.90
52531;DHT22;38441;52.894;6.040;2022-08-19T11:49:05;26.10;99.90
52531;DHT22;38441;52.894;6.040;2022-08-19T11:51:34;25.90;99.90
52531;DHT22;38441;52.894;6.040;2022-08-19T11:54:01;25.90;99.90
52531;DHT22;38441;52.894;6.040;2022-08-19T11:56:27;26.20;99.90
52531;DHT22;38441;52.894;6.040;2022-08-19T11:58:54;26.10;99.90
52531;DHT22;38441;52.894;6.040;2022-08-19T12:01:26;25.80;99.90
52531;DHT22;38441;52.894;6.040;2022-08-19T12:03:53;26.00;99.90
52531;DHT22;38441;52.894;6.040;2022-08-19T12:06:25;29.00;99.90
52531;DHT22;38441;52.894;6.040;2022-08-19T12:08:58;25.80;99.90
52531;DHT22;38441;52.894;6.040;2022-08-19T12:11:32;25.90;99.90
52531;DHT22;38441;52.894;6.040;2022-08-19T12:13:58;24.80;99.90
52531;DHT22;38441;52.894;6.040;2022-08-19T12:16:26;26.00;99.90
52531;DHT22;38441;52.894;6.040;2022-08-19T12:18:53;25.60;99.90
52531;DHT22;38441;52.894;6.040;2022-08-19T12:21:24;26.20;99.90
52531;DHT22;38441;52.894;6.040;2022-08-19T12:23:54;25.70;99.90
52531;DHT22;38441;52.894;6.040;2022-08-19T12:26:20;25.70;99.90
52531;DHT22;38441;52.894;6.040;2022-08-19T12:28:46;25.00;99.90
52531;DHT22;38441;52.894;6.040;2022-08-19T12:31:14;26.30;99.90
52531;DHT22;38441;52.894;6.040;2022-08-19T12:33:41;26.00;99.90
52531;DHT22;38441;52.894;6.040;2022-08-19T12:36:09;25.90;99.90
52531;DHT22;38441;52.894;6.040;2022-08-19T12:38:36;25.90;99.90
52531;DHT22;38441;52.894;6.040;2022-08-19T12:41:06;25.70;99.90
52531;DHT22;38441;52.894;6.040;2022-08-19T12:43:33;25.70;99.90
52531;DHT22;38441;52.894;6.040;2022-08-19T12:46:00;25.40;99.90
52531;DHT22;38441;52.894;6.040;2022-08-19T12:48:26;25.60;99.90
52531;DHT22;38441;52.894;6.040;2022-08-19T12:50:52;25.40;99.90
52531;DHT22;38441;52.894;6.040;2022-08-19T12:53:19;25.10;99.90
52531;DHT22;38441;52.894;6.040;2022-08-19T12:55:45;25.20;99.90
52531;DHT22;38441;52.894;6.040;2022-08-19T12:58:11;25.00;99.90
52531;DHT22;38441;52.894;6.040;2022-08-19T13:00:38;25.10;99.90
52531;DHT22;38441;52.894;6.040;2022-08-19T13:03:04;25.30;99.90
52531;DHT22;38441;52.894;6.040;2022-08-19T13:05:31;25.00;99.90
52531;DHT22;38441;52.894;6.040;2022-08-19T13:07:59;24.90;99.90
52531;DHT22;38441;52.894;6.040;2022-08-19T13:10:30;24.90;99.90
52531;DHT22;38441;52.894;6.040;2022-08-19T13:12:57;24.80;99.90
52531;DHT22;38441;52.894;6.040;2022-08-19T13:15:25;25.10;99.90
52531;DHT22;38441;52.894;6.040;2022-08-19T13:17:52;25.10;99.90
52531;DHT22;38441;52.894;6.040;2022-08-19T13:20:19;25.50;99.90
52531;DHT22;38441;52.894;6.040;2022-08-19T13:22:46;25.70;99.90
52531;DHT22;38441;52.894;6.040;2022-08-19T13:25:15;25.90;99.90
52531;DHT22;38441;52.894;6.040;2022-08-19T13:27:43;25.90;99.90
52531;DHT22;38441;52.894;6.040;2022-08-19T13:30:11;26.00;99.90
52531;DHT22;38441;52.894;6.040;2022-08-19T13:32:55;25.70;99.90
52531;DHT22;38441;52.894;6.040;2022-08-19T13:38:13;25.30;99.90
52531;DHT22;38441;52.894;6.040;2022-08-19T13:40:40;25.20;99.90
52531;DHT22;38441;52.894;6.040;2022-08-19T13:43:06;25.20;99.90
52531;DHT22;38441;52.894;6.040;2022-08-19T13:45:33;25.10;99.90
52531;DHT22;38441;52.894;6.040;2022-08-19T13:48:00;25.10;99.90
52531;DHT22;38441;52.894;6.040;2022-08-19T13:50:29;24.90;99.90
52531;DHT22;38441;52.894;6.040;2022-08-19T13:52:56;24.80;99.90
52531;DHT22;38441;52.894;6.040;2022-08-19T13:55:23;24.90;99.90
52531;DHT22;38441;52.894;6.040;2022-08-19T13:57:58;24.90;99.90
52531;DHT22;38441;52.894;6.040;2022-08-19T14:00:26;24.70;99.90
52531;DHT22;38441;52.894;6.040;2022-08-19T14:02:54;24.70;99.90
52531;DHT22;38441;52.894;6.040;2022-08-19T14:05:22;24.70;99.90
52531;DHT22;38441;52.894;6.040;2022-08-19T14:07:48;24.80;99.90
52531;DHT22;38441;52.894;6.040;2022-08-19T14:10:14;24.70;99.90
52531;DHT22;38441;52.894;6.040;2022-08-19T14:12:41;24.90;99.90
52531;DHT22;38441;52.894;6.040;2022-08-19T14:15:08;25.10;99.90
52531;DHT22;38441;52.894;6.040;2022-08-19T14:17:37;25.20;99.90
52531;DHT22;38441;52.894;6.040;2022-08-19T14:20:04;25.20;99.90
52531;DHT22;38441;52.894;6.040;2022-08-19T14:22:35;25.40;99.90
52531;DHT22;38441;52.894;6.040;2022-08-19T14:25:01;24.90;99.90
52531;DHT22;38441;52.894;6.040;2022-08-19T14:27:26;25.00;99.90
52531;DHT22;38441;52.894;6.040;2022-08-19T14:29:52;25.30;99.90
52531;DHT22;38441;52.894;6.040;2022-08-19T14:32:18;25.20;99.90
52531;DHT22;38441;52.894;6.040;2022-08-19T14:34:44;25.20;99.90
52531;DHT22;38441;52.894;6.040;2022-08-19T14:37:13;25.40;99.90
52531;DHT22;38441;52.894;6.040;2022-08-19T14:39:40;25.40;99.90
52531;DHT22;38441;52.894;6.040;2022-08-19T14:42:07;25.40;99.90
52531;DHT22;38441;52.894;6.040;2022-08-19T14:44:34;25.60;99.90
52531;DHT22;38441;52.894;6.040;2022-08-19T14:46:59;25.50;99.90
52531;DHT22;38441;52.894;6.040;2022-08-19T14:49:25;25.70;99.90
52531;DHT22;38441;52.894;6.040;2022-08-19T14:51:50;25.90;99.90
52531;DHT22;38441;52.894;6.040;2022-08-19T14:54:16;25.80;99.90
52531;DHT22;38441;52.894;6.040;2022-08-19T14:56:42;25.90;99.90
52531;DHT22;38441;52.894;6.040;2022-08-19T14:59:08;25.80;99.90
52531;DHT22;38441;52.894;6.040;2022-08-19T15:01:34;25.40;99.90
52531;DHT22;38441;52.894;6.040;2022-08-19T15:04:00;25.50;99.90
52531;DHT22;38441;52.894;6.040;2022-08-19T15:06:26;25.30;99.90
52531;DHT22;38441;52.894;6.040;2022-08-19T15:08:52;25.30;99.90
52531;DHT22;38441;52.894;6.040;2022-08-19T15:11:21;25.30;99.90
52531;DHT22;38441;52.894;6.040;2022-08-19T15:13:47;25.20;99.90
52531;DHT22;38441;52.894;6.040;2022-08-19T15:16:13;25.10;99.90
52531;DHT22;38441;52.894;6.040;2022-08-19T15:18:42;25.00;99.90
52531;DHT22;38441;52.894;6.040;2022-08-19T15:21:11;24.80;99.90
52531;DHT22;38441;52.894;6.040;2022-08-19T15:23:38;24.80;99.90
52531;DHT22;38441;52.894;6.040;2022-08-19T15:26:04;25.00;99.90
52531;DHT22;38441;52.894;6.040;2022-08-19T15:28:30;24.70;99.90
52531;DHT22;38441;52.894;6.040;2022-08-19T15:30:58;24.80;99.90
52531;DHT22;38441;52.894;6.040;2022-08-19T15:33:24;24.70;99.90
52531;DHT22;38441;52.894;6.040;2022-08-19T15:35:51;24.70;99.90
52531;DHT22;38441;52.894;6.040;2022-08-19T15:38:19;24.80;99.90
52531;DHT22;38441;52.894;6.040;2022-08-19T15:40:47;24.70;99.90
52531;DHT22;38441;52.894;6.040;2022-08-19T15:43:14;24.70;99.90
52531;DHT22;38441;52.894;6.040;2022-08-19T15:45:41;24.70;99.90
52531;DHT22;38441;52.894;6.040;2022-08-19T15:48:06;24.70;99.90
52531;DHT22;38441;52.894;6.040;2022-08-19T15:50:32;24.70;99.90
52531;DHT22;38441;52.894;6.040;2022-08-19T15:53:03;24.60;99.90
52531;DHT22;38441;52.894;6.040;2022-08-19T15:55:35;24.50;99.90
52531;DHT22;38441;52.894;6.040;2022-08-19T15:58:06;24.60;99.90
52531;DHT22;38441;52.894;6.040;2022-08-19T16:00:51;24.50;99.90
52531;DHT22;38441;52.894;6.040;2022-08-19T16:03:35;24.50;99.90
52531;DHT22;38441;52.894;6.040;2022-08-19T16:06:19;24.60;99.90
52531;DHT22;38441;52.894;6.040;2022-08-19T16:08:57;24.60;99.90
52531;DHT22;38441;52.894;6.040;2022-08-19T16:11:26;24.40;99.90
52531;DHT22;38441;52.894;6.040;2022-08-19T16:13:55;24.60;99.90
52531;DHT22;38441;52.894;6.040;2022-08-19T16:16:28;24.60;99.90
52531;DHT22;38441;52.894;6.040;2022-08-19T16:18:56;24.60;99.90
52531;DHT22;38441;52.894;6.040;2022-08-19T16:21:24;24.40;99.90
52531;DHT22;38441;52.894;6.040;2022-08-19T16:23:51;24.50;99.90
52531;DHT22;38441;52.894;6.040;2022-08-19T16:26:18;24.40;99.90
52531;DHT22;38441;52.894;6.040;2022-08-19T16:28:45;24.30;99.90
52531;DHT22;38441;52.894;6.040;2022-08-19T16:31:13;24.20;99.90
52531;DHT22;38441;52.894;6.040;2022-08-19T16:33:39;24.20;99.90
52531;DHT22;38441;52.894;6.040;2022-08-19T16:36:05;24.20;99.90